sensor_id;sensor_type;location;lat;lon;timestamp;P1;durP1;ratioP1;P2;durP2;ratioP2
77362;SDS011;66428;47.322;9.432;2023-04-28T00:00:56;2.97;;;1.98;;
77362;SDS011;66428;47.322;9.432;2023-04-28T00:03:25;2.88;;;1.90;;
77362;SDS011;66428;47.322;9.432;2023-04-28T00:05:54;2.25;;;1.48;;
77362;SDS011;66428;47.322;9.432;2023-04-28T00:08:21;2.85;;;1.60;;
77362;SDS011;66428;47.322;9.432;2023-04-28T00:10:51;2.45;;;1.55;;
77362;SDS011;66428;47.322;9.432;2023-04-28T00:13:17;2.20;;;1.50;;
77362;SDS011;66428;47.322;9.432;2023-04-28T00:15:46;3.22;;;1.85;;
77362;SDS011;66428;47.322;9.432;2023-04-28T00:18:18;2.42;;;1.67;;
77362;SDS011;66428;47.322;9.432;2023-04-28T00:20:50;3.20;;;1.60;;
77362;SDS011;66428;47.322;9.432;2023-04-28T00:23:17;3.75;;;2.03;;
77362;SDS011;66428;47.322;9.432;2023-04-28T00:25:49;4.68;;;2.53;;
77362;SDS011;66428;47.322;9.432;2023-04-28T00:28:21;3.92;;;1.90;;
77362;SDS011;66428;47.322;9.432;2023-04-28T00:31:01;4.82;;;2.20;;
77362;SDS011;66428;47.322;9.432;2023-04-28T00:33:27;2.17;;;1.50;;
77362;SDS011;66428;47.322;9.432;2023-04-28T00:35:59;3.70;;;2.28;;
77362;SDS011;66428;47.322;9.432;2023-04-28T00:38:26;2.95;;;2.03;;
77362;SDS011;66428;47.322;9.432;2023-04-28T00:40:52;3.35;;;1.88;;
77362;SDS011;66428;47.322;9.432;2023-04-28T00:43:23;3.35;;;2.20;;
77362;SDS011;66428;47.322;9.432;2023-04-28T00:45:50;2.78;;;1.52;;
77362;SDS011;66428;47.322;9.432;2023-04-28T00:48:19;2.75;;;1.50;;
77362;SDS011;66428;47.322;9.432;2023-04-28T00:50:49;2.55;;;1.60;;
77362;SDS011;66428;47.322;9.432;2023-04-28T00:53:15;4.40;;;1.77;;
77362;SDS011;66428;47.322;9.432;2023-04-28T00:55:44;3.17;;;1.58;;
77362;SDS011;66428;47.322;9.432;2023-04-28T00:58:14;2.10;;;1.40;;
77362;SDS011;66428;47.322;9.432;2023-04-28T01:00:40;3.88;;;1.60;;
77362;SDS011;66428;47.322;9.432;2023-04-28T01:03:09;2.85;;;1.70;;
77362;SDS011;66428;47.322;9.432;2023-04-28T01:05:39;2.60;;;1.38;;
77362;SDS011;66428;47.322;9.432;2023-04-28T01:08:08;3.22;;;1.27;;
77362;SDS011;66428;47.322;9.432;2023-04-28T01:10:42;2.15;;;1.35;;
77362;SDS011;66428;47.322;9.432;2023-04-28T01:13:16;2.20;;;1.23;;
77362;SDS011;66428;47.322;9.432;2023-04-28T01:15:45;2.15;;;1.35;;
77362;SDS011;66428;47.322;9.432;2023-04-28T01:18:18;2.38;;;1.35;;
77362;SDS011;66428;47.322;9.432;2023-04-28T01:20:47;2.88;;;1.33;;
77362;SDS011;66428;47.322;9.432;2023-04-28T01:23:16;1.92;;;1.25;;
77362;SDS011;66428;47.322;9.432;2023-04-28T01:25:46;2.00;;;1.10;;
77362;SDS011;66428;47.322;9.432;2023-04-28T01:28:12;2.53;;;1.38;;
77362;SDS011;66428;47.322;9.432;2023-04-28T01:30:41;2.15;;;1.30;;
77362;SDS011;66428;47.322;9.432;2023-04-28T01:33:10;2.58;;;1.40;;
77362;SDS011;66428;47.322;9.432;2023-04-28T01:35:37;3.55;;;1.40;;
77362;SDS011;66428;47.322;9.432;2023-04-28T01:38:03;2.42;;;1.40;;
77362;SDS011;66428;47.322;9.432;2023-04-28T01:40:34;2.97;;;1.20;;
77362;SDS011;66428;47.322;9.432;2023-04-28T01:43:01;2.88;;;2.00;;
77362;SDS011;66428;47.322;9.432;2023-04-28T01:45:28;2.25;;;1.27;;
77362;SDS011;66428;47.322;9.432;2023-04-28T01:47:57;4.10;;;1.40;;
77362;SDS011;66428;47.322;9.432;2023-04-28T01:50:24;2.33;;;1.35;;
77362;SDS011;66428;47.322;9.432;2023-04-28T01:52:55;1.92;;;1.05;;
77362;SDS011;66428;47.322;9.432;2023-04-28T01:55:21;3.53;;;1.27;;
77362;SDS011;66428;47.322;9.432;2023-04-28T01:57:48;2.17;;;1.35;;
77362;SDS011;66428;47.322;9.432;2023-04-28T02:00:18;3.10;;;1.20;;
77362;SDS011;66428;47.322;9.432;2023-04-28T02:02:50;4.65;;;1.30;;
77362;SDS011;66428;47.322;9.432;2023-04-28T02:05:19;2.35;;;1.48;;
77362;SDS011;66428;47.322;9.432;2023-04-28T02:07:49;2.45;;;1.10;;
77362;SDS011;66428;47.322;9.432;2023-04-28T02:10:18;2.30;;;1.23;;
77362;SDS011;66428;47.322;9.432;2023-04-28T02:12:47;2.25;;;1.10;;
77362;SDS011;66428;47.322;9.432;2023-04-28T02:15:16;1.48;;;0.98;;
77362;SDS011;66428;47.322;9.432;2023-04-28T02:17:42;3.53;;;1.10;;
77362;SDS011;66428;47.322;9.432;2023-04-28T02:20:12;4.38;;;1.48;;
77362;SDS011;66428;47.322;9.432;2023-04-28T02:22:42;2.63;;;1.35;;
77362;SDS011;66428;47.322;9.432;2023-04-28T02:25:13;2.42;;;1.17;;
77362;SDS011;66428;47.322;9.432;2023-04-28T02:27:42;1.83;;;1.05;;
77362;SDS011;66428;47.322;9.432;2023-04-28T02:30:10;3.40;;;1.30;;
77362;SDS011;66428;47.322;9.432;2023-04-28T02:32:37;2.20;;;1.40;;
77362;SDS011;66428;47.322;9.432;2023-04-28T02:35:06;1.98;;;1.20;;
77362;SDS011;66428;47.322;9.432;2023-04-28T02:37:33;2.92;;;1.05;;
77362;SDS011;66428;47.322;9.432;2023-04-28T02:40:01;2.42;;;1.42;;
77362;SDS011;66428;47.322;9.432;2023-04-28T02:42:31;2.80;;;1.23;;
77362;SDS011;66428;47.322;9.432;2023-04-28T02:44:57;2.22;;;1.40;;
77362;SDS011;66428;47.322;9.432;2023-04-28T02:47:29;2.90;;;1.30;;
77362;SDS011;66428;47.322;9.432;2023-04-28T02:50:00;3.28;;;1.55;;
77362;SDS011;66428;47.322;9.432;2023-04-28T02:52:27;2.40;;;1.42;;
77362;SDS011;66428;47.322;9.432;2023-04-28T02:54:58;3.45;;;1.50;;
77362;SDS011;66428;47.322;9.432;2023-04-28T02:57:25;2.90;;;1.75;;
77362;SDS011;66428;47.322;9.432;2023-04-28T02:59:52;2.50;;;1.45;;
77362;SDS011;66428;47.322;9.432;2023-04-28T03:02:18;3.35;;;1.60;;
77362;SDS011;66428;47.322;9.432;2023-04-28T03:04:49;2.00;;;1.52;;
77362;SDS011;66428;47.322;9.432;2023-04-28T03:07:17;3.30;;;1.88;;
77362;SDS011;66428;47.322;9.432;2023-04-28T03:09:44;1.90;;;1.38;;
77362;SDS011;66428;47.322;9.432;2023-04-28T03:12:11;2.85;;;1.70;;
77362;SDS011;66428;47.322;9.432;2023-04-28T03:14:40;2.53;;;1.30;;
77362;SDS011;66428;47.322;9.432;2023-04-28T03:17:09;2.08;;;1.33;;
77362;SDS011;66428;47.322;9.432;2023-04-28T03:19:36;3.30;;;1.40;;
77362;SDS011;66428;47.322;9.432;2023-04-28T03:22:02;2.95;;;1.55;;
77362;SDS011;66428;47.322;9.432;2023-04-28T03:24:31;2.47;;;1.60;;
77362;SDS011;66428;47.322;9.432;2023-04-28T03:26:57;2.25;;;1.23;;
77362;SDS011;66428;47.322;9.432;2023-04-28T03:29:24;4.18;;;1.40;;
77362;SDS011;66428;47.322;9.432;2023-04-28T03:31:53;2.38;;;1.35;;
77362;SDS011;66428;47.322;9.432;2023-04-28T03:34:22;2.40;;;1.60;;
77362;SDS011;66428;47.322;9.432;2023-04-28T03:36:51;4.35;;;1.80;;
77362;SDS011;66428;47.322;9.432;2023-04-28T03:39:24;3.50;;;1.77;;
77362;SDS011;66428;47.322;9.432;2023-04-28T03:41:54;2.60;;;1.42;;
77362;SDS011;66428;47.322;9.432;2023-04-28T03:44:32;3.72;;;1.60;;
77362;SDS011;66428;47.322;9.432;2023-04-28T03:47:00;4.35;;;1.50;;
77362;SDS011;66428;47.322;9.432;2023-04-28T03:49:31;3.22;;;1.50;;
77362;SDS011;66428;47.322;9.432;2023-04-28T03:51:58;2.72;;;1.60;;
77362;SDS011;66428;47.322;9.432;2023-04-28T03:54:27;2.13;;;1.40;;
77362;SDS011;66428;47.322;9.432;2023-04-28T03:56:58;3.17;;;1.80;;
77362;SDS011;66428;47.322;9.432;2023-04-28T03:59:31;1.95;;;1.30;;
77362;SDS011;66428;47.322;9.432;2023-04-28T04:02:00;3.65;;;1.60;;
77362;SDS011;66428;47.322;9.432;2023-04-28T04:04:29;2.60;;;1.42;;
77362;SDS011;66428;47.322;9.432;2023-04-28T04:06:59;2.30;;;1.48;;
77362;SDS011;66428;47.322;9.432;2023-04-28T04:09:28;4.18;;;1.48;;
77362;SDS011;66428;47.322;9.432;2023-04-28T04:11:55;4.15;;;1.38;;
77362;SDS011;66428;47.322;9.432;2023-04-28T04:14:23;3.03;;;1.83;;
77362;SDS011;66428;47.322;9.432;2023-04-28T04:16:54;3.40;;;2.10;;
77362;SDS011;66428;47.322;9.432;2023-04-28T04:19:24;3.80;;;1.90;;
77362;SDS011;66428;47.322;9.432;2023-04-28T04:21:53;3.85;;;2.42;;
77362;SDS011;66428;47.322;9.432;2023-04-28T04:24:19;7.30;;;3.30;;
77362;SDS011;66428;47.322;9.432;2023-04-28T04:26:49;6.20;;;2.70;;
77362;SDS011;66428;47.322;9.432;2023-04-28T04:29:34;4.75;;;2.35;;
77362;SDS011;66428;47.322;9.432;2023-04-28T04:32:05;3.38;;;2.03;;
77362;SDS011;66428;47.322;9.432;2023-04-28T04:34:33;3.95;;;3.03;;
77362;SDS011;66428;47.322;9.432;2023-04-28T04:37:02;4.85;;;3.05;;
77362;SDS011;66428;47.322;9.432;2023-04-28T04:39:34;8.65;;;3.95;;
77362;SDS011;66428;47.322;9.432;2023-04-28T04:42:03;6.30;;;3.72;;
77362;SDS011;66428;47.322;9.432;2023-04-28T04:45:11;3.33;;;2.08;;
77362;SDS011;66428;47.322;9.432;2023-04-28T04:47:38;3.45;;;2.15;;
77362;SDS011;66428;47.322;9.432;2023-04-28T04:50:08;4.53;;;2.40;;
77362;SDS011;66428;47.322;9.432;2023-04-28T04:52:37;4.13;;;2.13;;
77362;SDS011;66428;47.322;9.432;2023-04-28T04:55:04;4.70;;;2.38;;
77362;SDS011;66428;47.322;9.432;2023-04-28T04:57:35;3.30;;;2.33;;
77362;SDS011;66428;47.322;9.432;2023-04-28T05:00:05;6.22;;;4.07;;
77362;SDS011;66428;47.322;9.432;2023-04-28T05:02:31;6.68;;;4.50;;
77362;SDS011;66428;47.322;9.432;2023-04-28T05:04:59;4.28;;;3.10;;
77362;SDS011;66428;47.322;9.432;2023-04-28T05:07:46;3.53;;;2.22;;
77362;SDS011;66428;47.322;9.432;2023-04-28T05:10:13;4.53;;;2.63;;
77362;SDS011;66428;47.322;9.432;2023-04-28T05:12:43;4.85;;;2.42;;
77362;SDS011;66428;47.322;9.432;2023-04-28T05:15:15;5.93;;;3.58;;
77362;SDS011;66428;47.322;9.432;2023-04-28T05:18:03;5.93;;;3.42;;
77362;SDS011;66428;47.322;9.432;2023-04-28T05:20:37;5.13;;;3.42;;
77362;SDS011;66428;47.322;9.432;2023-04-28T05:23:07;6.28;;;3.10;;
77362;SDS011;66428;47.322;9.432;2023-04-28T05:25:36;4.00;;;2.25;;
77362;SDS011;66428;47.322;9.432;2023-04-28T05:28:08;3.00;;;2.13;;
77362;SDS011;66428;47.322;9.432;2023-04-28T05:30:34;4.80;;;2.72;;
77362;SDS011;66428;47.322;9.432;2023-04-28T05:33:03;6.07;;;2.80;;
77362;SDS011;66428;47.322;9.432;2023-04-28T05:35:32;4.05;;;2.42;;
77362;SDS011;66428;47.322;9.432;2023-04-28T05:38:02;3.63;;;2.67;;
77362;SDS011;66428;47.322;9.432;2023-04-28T05:40:28;3.55;;;2.20;;
77362;SDS011;66428;47.322;9.432;2023-04-28T05:42:57;3.60;;;2.63;;
77362;SDS011;66428;47.322;9.432;2023-04-28T05:45:25;3.72;;;2.33;;
77362;SDS011;66428;47.322;9.432;2023-04-28T05:47:55;4.03;;;2.40;;
77362;SDS011;66428;47.322;9.432;2023-04-28T05:50:21;4.25;;;2.25;;
77362;SDS011;66428;47.322;9.432;2023-04-28T05:52:52;3.20;;;2.17;;
77362;SDS011;66428;47.322;9.432;2023-04-28T05:55:19;4.50;;;2.88;;
77362;SDS011;66428;47.322;9.432;2023-04-28T05:57:48;4.03;;;3.25;;
77362;SDS011;66428;47.322;9.432;2023-04-28T06:00:19;4.05;;;2.45;;
77362;SDS011;66428;47.322;9.432;2023-04-28T06:02:48;5.03;;;2.42;;
77362;SDS011;66428;47.322;9.432;2023-04-28T06:05:14;2.80;;;1.83;;
77362;SDS011;66428;47.322;9.432;2023-04-28T06:07:44;3.00;;;2.03;;
77362;SDS011;66428;47.322;9.432;2023-04-28T06:10:14;3.55;;;2.17;;
77362;SDS011;66428;47.322;9.432;2023-04-28T06:12:40;5.30;;;2.40;;
77362;SDS011;66428;47.322;9.432;2023-04-28T06:15:09;4.78;;;2.60;;
77362;SDS011;66428;47.322;9.432;2023-04-28T06:17:37;3.35;;;2.03;;
77362;SDS011;66428;47.322;9.432;2023-04-28T06:20:05;3.72;;;2.20;;
77362;SDS011;66428;47.322;9.432;2023-04-28T06:22:32;3.30;;;2.42;;
77362;SDS011;66428;47.322;9.432;2023-04-28T06:24:58;3.97;;;2.00;;
77362;SDS011;66428;47.322;9.432;2023-04-28T06:27:33;3.58;;;2.13;;
77362;SDS011;66428;47.322;9.432;2023-04-28T06:29:59;3.75;;;2.00;;
77362;SDS011;66428;47.322;9.432;2023-04-28T06:32:28;3.28;;;2.08;;
77362;SDS011;66428;47.322;9.432;2023-04-28T06:34:57;3.60;;;2.30;;
77362;SDS011;66428;47.322;9.432;2023-04-28T06:37:26;3.58;;;2.58;;
77362;SDS011;66428;47.322;9.432;2023-04-28T06:39:59;4.18;;;2.72;;
77362;SDS011;66428;47.322;9.432;2023-04-28T06:42:31;3.63;;;2.65;;
77362;SDS011;66428;47.322;9.432;2023-04-28T06:45:08;4.10;;;2.70;;
77362;SDS011;66428;47.322;9.432;2023-04-28T06:47:36;3.58;;;2.45;;
77362;SDS011;66428;47.322;9.432;2023-04-28T06:50:06;3.80;;;2.75;;
77362;SDS011;66428;47.322;9.432;2023-04-28T06:52:34;5.90;;;2.40;;
77362;SDS011;66428;47.322;9.432;2023-04-28T06:55:06;4.20;;;2.63;;
77362;SDS011;66428;47.322;9.432;2023-04-28T06:57:35;3.90;;;1.80;;
77362;SDS011;66428;47.322;9.432;2023-04-28T07:00:03;2.50;;;1.63;;
77362;SDS011;66428;47.322;9.432;2023-04-28T07:02:29;3.20;;;1.88;;
77362;SDS011;66428;47.322;9.432;2023-04-28T07:04:58;2.33;;;1.45;;
77362;SDS011;66428;47.322;9.432;2023-04-28T07:07:27;2.40;;;1.48;;
77362;SDS011;66428;47.322;9.432;2023-04-28T07:09:53;2.60;;;1.70;;
77362;SDS011;66428;47.322;9.432;2023-04-28T07:12:24;2.25;;;1.45;;
77362;SDS011;66428;47.322;9.432;2023-04-28T07:14:51;2.78;;;1.50;;
77362;SDS011;66428;47.322;9.432;2023-04-28T07:17:17;2.47;;;1.73;;
77362;SDS011;66428;47.322;9.432;2023-04-28T07:19:47;2.20;;;1.23;;
77362;SDS011;66428;47.322;9.432;2023-04-28T07:22:19;2.30;;;1.40;;
77362;SDS011;66428;47.322;9.432;2023-04-28T07:24:45;2.00;;;1.40;;
77362;SDS011;66428;47.322;9.432;2023-04-28T07:27:14;2.20;;;1.25;;
77362;SDS011;66428;47.322;9.432;2023-04-28T07:29:41;2.40;;;1.45;;
77362;SDS011;66428;47.322;9.432;2023-04-28T07:34:35;1.52;;;0.80;;
77362;SDS011;66428;47.322;9.432;2023-04-28T07:37:04;2.30;;;1.00;;
77362;SDS011;66428;47.322;9.432;2023-04-28T07:39:32;2.05;;;1.27;;
77362;SDS011;66428;47.322;9.432;2023-04-28T07:42:00;1.77;;;1.20;;
77362;SDS011;66428;47.322;9.432;2023-04-28T07:44:30;2.00;;;0.98;;
77362;SDS011;66428;47.322;9.432;2023-04-28T07:47:00;2.78;;;1.30;;
77362;SDS011;66428;47.322;9.432;2023-04-28T07:49:31;2.42;;;1.38;;
77362;SDS011;66428;47.322;9.432;2023-04-28T07:51:58;2.08;;;1.10;;
77362;SDS011;66428;47.322;9.432;2023-04-28T07:54:24;2.28;;;1.30;;
77362;SDS011;66428;47.322;9.432;2023-04-28T07:56:51;1.60;;;1.10;;
77362;SDS011;66428;47.322;9.432;2023-04-28T07:59:20;2.55;;;1.38;;
77362;SDS011;66428;47.322;9.432;2023-04-28T08:01:49;1.95;;;1.10;;
77362;SDS011;66428;47.322;9.432;2023-04-28T08:04:15;1.70;;;1.10;;
77362;SDS011;66428;47.322;9.432;2023-04-28T08:06:43;2.33;;;1.20;;
77362;SDS011;66428;47.322;9.432;2023-04-28T08:09:12;1.95;;;1.08;;
77362;SDS011;66428;47.322;9.432;2023-04-28T08:11:41;2.20;;;1.38;;
77362;SDS011;66428;47.322;9.432;2023-04-28T08:14:08;2.17;;;1.50;;
77362;SDS011;66428;47.322;9.432;2023-04-28T08:16:34;2.22;;;1.60;;
77362;SDS011;66428;47.322;9.432;2023-04-28T08:19:05;2.60;;;1.73;;
77362;SDS011;66428;47.322;9.432;2023-04-28T08:21:35;2.30;;;1.48;;
77362;SDS011;66428;47.322;9.432;2023-04-28T08:24:01;1.33;;;1.02;;
77362;SDS011;66428;47.322;9.432;2023-04-28T08:26:28;1.55;;;1.10;;
77362;SDS011;66428;47.322;9.432;2023-04-28T08:28:57;3.30;;;1.67;;
77362;SDS011;66428;47.322;9.432;2023-04-28T08:31:26;2.47;;;1.52;;
77362;SDS011;66428;47.322;9.432;2023-04-28T08:33:52;1.83;;;1.15;;
77362;SDS011;66428;47.322;9.432;2023-04-28T08:36:21;2.58;;;1.50;;
77362;SDS011;66428;47.322;9.432;2023-04-28T08:38:50;3.25;;;1.65;;
77362;SDS011;66428;47.322;9.432;2023-04-28T08:41:17;2.30;;;1.30;;
77362;SDS011;66428;47.322;9.432;2023-04-28T08:43:44;2.70;;;1.20;;
77362;SDS011;66428;47.322;9.432;2023-04-28T08:46:13;2.08;;;1.48;;
77362;SDS011;66428;47.322;9.432;2023-04-28T08:48:43;2.13;;;1.40;;
77362;SDS011;66428;47.322;9.432;2023-04-28T08:51:21;3.47;;;1.33;;
77362;SDS011;66428;47.322;9.432;2023-04-28T08:53:53;1.85;;;1.23;;
77362;SDS011;66428;47.322;9.432;2023-04-28T08:56:26;1.98;;;1.25;;
77362;SDS011;66428;47.322;9.432;2023-04-28T08:58:57;2.05;;;1.23;;
77362;SDS011;66428;47.322;9.432;2023-04-28T09:01:26;3.25;;;1.85;;
77362;SDS011;66428;47.322;9.432;2023-04-28T09:03:53;6.03;;;2.28;;
77362;SDS011;66428;47.322;9.432;2023-04-28T09:06:25;2.92;;;2.10;;
77362;SDS011;66428;47.322;9.432;2023-04-28T09:08:54;2.75;;;1.77;;
77362;SDS011;66428;47.322;9.432;2023-04-28T09:11:23;2.42;;;1.50;;
77362;SDS011;66428;47.322;9.432;2023-04-28T09:13:52;2.78;;;1.55;;
77362;SDS011;66428;47.322;9.432;2023-04-28T09:16:19;3.85;;;1.65;;
77362;SDS011;66428;47.322;9.432;2023-04-28T09:18:55;2.90;;;2.00;;
77362;SDS011;66428;47.322;9.432;2023-04-28T09:21:22;4.28;;;2.40;;
77362;SDS011;66428;47.322;9.432;2023-04-28T09:23:49;6.88;;;3.72;;
77362;SDS011;66428;47.322;9.432;2023-04-28T09:26:18;3.65;;;1.90;;
77362;SDS011;66428;47.322;9.432;2023-04-28T09:28:49;2.60;;;1.50;;
77362;SDS011;66428;47.322;9.432;2023-04-28T09:31:24;3.25;;;1.92;;
77362;SDS011;66428;47.322;9.432;2023-04-28T09:33:56;3.28;;;2.35;;
77362;SDS011;66428;47.322;9.432;2023-04-28T09:36:27;3.30;;;2.08;;
77362;SDS011;66428;47.322;9.432;2023-04-28T09:39:00;3.05;;;2.00;;
77362;SDS011;66428;47.322;9.432;2023-04-28T09:44:12;3.05;;;1.60;;
77362;SDS011;66428;47.322;9.432;2023-04-28T09:46:44;2.40;;;1.55;;
77362;SDS011;66428;47.322;9.432;2023-04-28T09:49:11;2.50;;;1.70;;
77362;SDS011;66428;47.322;9.432;2023-04-28T09:51:43;3.25;;;1.80;;
77362;SDS011;66428;47.322;9.432;2023-04-28T09:54:14;2.00;;;1.23;;
77362;SDS011;66428;47.322;9.432;2023-04-28T09:56:45;2.75;;;1.20;;
77362;SDS011;66428;47.322;9.432;2023-04-28T09:59:18;1.70;;;1.20;;
77362;SDS011;66428;47.322;9.432;2023-04-28T10:01:47;1.80;;;1.20;;
77362;SDS011;66428;47.322;9.432;2023-04-28T10:04:14;2.38;;;1.30;;
77362;SDS011;66428;47.322;9.432;2023-04-28T10:06:46;1.63;;;0.90;;
77362;SDS011;66428;47.322;9.432;2023-04-28T10:09:13;1.80;;;1.10;;
77362;SDS011;66428;47.322;9.432;2023-04-28T10:11:42;2.90;;;1.55;;
77362;SDS011;66428;47.322;9.432;2023-04-28T10:14:11;3.00;;;1.73;;
77362;SDS011;66428;47.322;9.432;2023-04-28T10:16:38;3.10;;;1.92;;
77362;SDS011;66428;47.322;9.432;2023-04-28T10:19:05;2.60;;;1.50;;
77362;SDS011;66428;47.322;9.432;2023-04-28T10:21:34;4.90;;;1.65;;
77362;SDS011;66428;47.322;9.432;2023-04-28T10:29:23;2.45;;;1.60;;
77362;SDS011;66428;47.322;9.432;2023-04-28T10:34:36;2.65;;;1.52;;
77362;SDS011;66428;47.322;9.432;2023-04-28T10:37:05;2.05;;;1.30;;
77362;SDS011;66428;47.322;9.432;2023-04-28T10:39:34;2.30;;;1.85;;
77362;SDS011;66428;47.322;9.432;2023-04-28T10:42:06;2.25;;;1.40;;
77362;SDS011;66428;47.322;9.432;2023-04-28T10:44:53;3.13;;;1.52;;
77362;SDS011;66428;47.322;9.432;2023-04-28T10:47:25;2.60;;;1.55;;
77362;SDS011;66428;47.322;9.432;2023-04-28T10:58:39;2.85;;;2.00;;
77362;SDS011;66428;47.322;9.432;2023-04-28T11:00:41;3.47;;;2.47;;
77362;SDS011;66428;47.322;9.432;2023-04-28T11:03:08;3.75;;;2.00;;
77362;SDS011;66428;47.322;9.432;2023-04-28T11:05:37;2.75;;;1.75;;
77362;SDS011;66428;47.322;9.432;2023-04-28T11:11:11;1.92;;;1.00;;
77362;SDS011;66428;47.322;9.432;2023-04-28T11:13:38;2.80;;;1.00;;
77362;SDS011;66428;47.322;9.432;2023-04-28T11:16:05;1.75;;;1.10;;
77362;SDS011;66428;47.322;9.432;2023-04-28T11:18:48;1.08;;;0.70;;
77362;SDS011;66428;47.322;9.432;2023-04-28T11:21:20;1.65;;;1.00;;
77362;SDS011;66428;47.322;9.432;2023-04-28T11:23:49;2.13;;;1.08;;
77362;SDS011;66428;47.322;9.432;2023-04-28T11:26:20;1.60;;;1.02;;
77362;SDS011;66428;47.322;9.432;2023-04-28T11:28:50;2.13;;;1.30;;
77362;SDS011;66428;47.322;9.432;2023-04-28T11:31:17;2.33;;;1.00;;
77362;SDS011;66428;47.322;9.432;2023-04-28T11:36:28;1.15;;;0.80;;
77362;SDS011;66428;47.322;9.432;2023-04-28T11:38:58;2.13;;;1.02;;
77362;SDS011;66428;47.322;9.432;2023-04-28T11:41:27;1.77;;;1.15;;
77362;SDS011;66428;47.322;9.432;2023-04-28T11:43:53;1.73;;;0.95;;
77362;SDS011;66428;47.322;9.432;2023-04-28T11:46:21;2.60;;;1.00;;
77362;SDS011;66428;47.322;9.432;2023-04-28T11:49:03;1.27;;;0.73;;
77362;SDS011;66428;47.322;9.432;2023-04-28T11:51:35;2.05;;;0.68;;
77362;SDS011;66428;47.322;9.432;2023-04-28T11:54:02;1.17;;;0.77;;
77362;SDS011;66428;47.322;9.432;2023-04-28T11:56:35;0.77;;;0.47;;
77362;SDS011;66428;47.322;9.432;2023-04-28T11:59:02;1.25;;;0.85;;
77362;SDS011;66428;47.322;9.432;2023-04-28T12:01:30;2.25;;;0.85;;
77362;SDS011;66428;47.322;9.432;2023-04-28T12:03:56;1.20;;;0.75;;
77362;SDS011;66428;47.322;9.432;2023-04-28T12:06:25;1.20;;;0.70;;
77362;SDS011;66428;47.322;9.432;2023-04-28T12:08:55;1.63;;;0.85;;
77362;SDS011;66428;47.322;9.432;2023-04-28T12:11:32;0.93;;;0.70;;
77362;SDS011;66428;47.322;9.432;2023-04-28T12:14:04;1.63;;;0.88;;
77362;SDS011;66428;47.322;9.432;2023-04-28T12:16:37;1.00;;;0.70;;
77362;SDS011;66428;47.322;9.432;2023-04-28T12:19:05;0.57;;;0.40;;
77362;SDS011;66428;47.322;9.432;2023-04-28T12:21:37;1.10;;;0.70;;
77362;SDS011;66428;47.322;9.432;2023-04-28T12:24:20;2.22;;;0.98;;
77362;SDS011;66428;47.322;9.432;2023-04-28T12:26:47;1.70;;;0.93;;
77362;SDS011;66428;47.322;9.432;2023-04-28T12:32:04;1.10;;;0.50;;
77362;SDS011;66428;47.322;9.432;2023-04-28T12:34:34;1.20;;;0.85;;
77362;SDS011;66428;47.322;9.432;2023-04-28T12:37:04;0.90;;;0.60;;
77362;SDS011;66428;47.322;9.432;2023-04-28T12:39:33;2.00;;;1.08;;
77362;SDS011;66428;47.322;9.432;2023-04-28T12:42:05;1.80;;;1.08;;
77362;SDS011;66428;47.322;9.432;2023-04-28T12:44:32;1.85;;;1.20;;
77362;SDS011;66428;47.322;9.432;2023-04-28T12:47:03;2.10;;;1.10;;
77362;SDS011;66428;47.322;9.432;2023-04-28T12:49:34;0.60;;;0.50;;
77362;SDS011;66428;47.322;9.432;2023-04-28T12:52:02;1.08;;;0.65;;
77362;SDS011;66428;47.322;9.432;2023-04-28T12:54:31;2.42;;;1.02;;
77362;SDS011;66428;47.322;9.432;2023-04-28T12:57:00;5.57;;;1.50;;
77362;SDS011;66428;47.322;9.432;2023-04-28T12:59:32;5.35;;;1.83;;
77362;SDS011;66428;47.322;9.432;2023-04-28T13:02:01;1.40;;;0.93;;
77362;SDS011;66428;47.322;9.432;2023-04-28T13:04:30;3.90;;;1.33;;
77362;SDS011;66428;47.322;9.432;2023-04-28T13:07:03;1.58;;;0.88;;
77362;SDS011;66428;47.322;9.432;2023-04-28T13:09:29;1.20;;;0.85;;
77362;SDS011;66428;47.322;9.432;2023-04-28T13:11:58;6.35;;;1.45;;
77362;SDS011;66428;47.322;9.432;2023-04-28T13:14:25;2.75;;;1.05;;
77362;SDS011;66428;47.322;9.432;2023-04-28T13:16:53;1.80;;;0.80;;
77362;SDS011;66428;47.322;9.432;2023-04-28T13:19:22;1.08;;;0.70;;
77362;SDS011;66428;47.322;9.432;2023-04-28T13:21:52;0.73;;;0.45;;
77362;SDS011;66428;47.322;9.432;2023-04-28T13:24:21;0.57;;;0.47;;
77362;SDS011;66428;47.322;9.432;2023-04-28T13:26:48;0.57;;;0.40;;
77362;SDS011;66428;47.322;9.432;2023-04-28T13:29:14;0.85;;;0.60;;
77362;SDS011;66428;47.322;9.432;2023-04-28T13:31:43;0.82;;;0.70;;
77362;SDS011;66428;47.322;9.432;2023-04-28T13:34:10;0.50;;;0.43;;
77362;SDS011;66428;47.322;9.432;2023-04-28T13:36:42;0.50;;;0.40;;
77362;SDS011;66428;47.322;9.432;2023-04-28T13:39:13;0.45;;;0.32;;
77362;SDS011;66428;47.322;9.432;2023-04-28T13:41:40;0.30;;;0.22;;
77362;SDS011;66428;47.322;9.432;2023-04-28T13:44:07;0.88;;;0.40;;
77362;SDS011;66428;47.322;9.432;2023-04-28T13:46:37;0.63;;;0.45;;
77362;SDS011;66428;47.322;9.432;2023-04-28T13:49:13;0.50;;;0.45;;
77362;SDS011;66428;47.322;9.432;2023-04-28T13:51:42;1.05;;;0.50;;
77362;SDS011;66428;47.322;9.432;2023-04-28T13:54:08;0.85;;;0.68;;
77362;SDS011;66428;47.322;9.432;2023-04-28T13:56:39;0.40;;;0.40;;
77362;SDS011;66428;47.322;9.432;2023-04-28T13:59:08;0.90;;;0.50;;
77362;SDS011;66428;47.322;9.432;2023-04-28T14:01:37;0.40;;;0.40;;
77362;SDS011;66428;47.322;9.432;2023-04-28T14:04:06;0.63;;;0.40;;
77362;SDS011;66428;47.322;9.432;2023-04-28T14:06:35;0.98;;;0.70;;
77362;SDS011;66428;47.322;9.432;2023-04-28T14:09:07;0.57;;;0.50;;
77362;SDS011;66428;47.322;9.432;2023-04-28T14:11:36;0.40;;;0.40;;
77362;SDS011;66428;47.322;9.432;2023-04-28T14:14:03;1.00;;;0.52;;
77362;SDS011;66428;47.322;9.432;2023-04-28T14:16:29;6.22;;;3.83;;
77362;SDS011;66428;47.322;9.432;2023-04-28T14:19:01;8.82;;;5.93;;
77362;SDS011;66428;47.322;9.432;2023-04-28T14:21:32;7.63;;;4.88;;
77362;SDS011;66428;47.322;9.432;2023-04-28T14:24:01;2.35;;;1.40;;
77362;SDS011;66428;47.322;9.432;2023-04-28T14:26:34;1.75;;;1.13;;
77362;SDS011;66428;47.322;9.432;2023-04-28T14:29:03;1.10;;;0.70;;
77362;SDS011;66428;47.322;9.432;2023-04-28T14:31:33;2.53;;;1.98;;
77362;SDS011;66428;47.322;9.432;2023-04-28T14:34:02;2.72;;;1.50;;
77362;SDS011;66428;47.322;9.432;2023-04-28T14:36:29;2.03;;;1.40;;
77362;SDS011;66428;47.322;9.432;2023-04-28T14:38:56;1.63;;;1.08;;
77362;SDS011;66428;47.322;9.432;2023-04-28T14:41:25;1.60;;;1.00;;
77362;SDS011;66428;47.322;9.432;2023-04-28T14:43:52;1.52;;;1.00;;
77362;SDS011;66428;47.322;9.432;2023-04-28T14:46:18;2.33;;;1.38;;
77362;SDS011;66428;47.322;9.432;2023-04-28T14:48:50;2.83;;;1.42;;
77362;SDS011;66428;47.322;9.432;2023-04-28T14:51:20;5.30;;;3.30;;
77362;SDS011;66428;47.322;9.432;2023-04-28T14:53:49;1.77;;;1.15;;
77362;SDS011;66428;47.322;9.432;2023-04-28T14:56:16;1.63;;;1.08;;
77362;SDS011;66428;47.322;9.432;2023-04-28T14:58:47;2.33;;;1.38;;
77362;SDS011;66428;47.322;9.432;2023-04-28T15:01:14;1.45;;;0.90;;
77362;SDS011;66428;47.322;9.432;2023-04-28T15:03:43;2.90;;;1.30;;
77362;SDS011;66428;47.322;9.432;2023-04-28T15:06:10;2.08;;;1.20;;
77362;SDS011;66428;47.322;9.432;2023-04-28T15:08:42;2.50;;;1.58;;
77362;SDS011;66428;47.322;9.432;2023-04-28T15:11:08;3.53;;;1.60;;
77362;SDS011;66428;47.322;9.432;2023-04-28T15:13:37;3.45;;;1.92;;
77362;SDS011;66428;47.322;9.432;2023-04-28T15:16:08;2.60;;;1.88;;
77362;SDS011;66428;47.322;9.432;2023-04-28T15:18:43;2.28;;;1.55;;
77362;SDS011;66428;47.322;9.432;2023-04-28T15:21:15;2.78;;;1.95;;
77362;SDS011;66428;47.322;9.432;2023-04-28T15:23:41;3.42;;;1.88;;
77362;SDS011;66428;47.322;9.432;2023-04-28T15:26:08;2.70;;;1.50;;
77362;SDS011;66428;47.322;9.432;2023-04-28T15:28:38;2.75;;;2.00;;
77362;SDS011;66428;47.322;9.432;2023-04-28T15:31:05;3.25;;;2.05;;